aviador You're here:

CYWE Decoded Metar

in
Report Time2017-08-20 18:48:00
UTC Time2017-08-20 19:07:53
Flight Rules mvfr MVFR
Wind130° at 10 Gusting to 16 kt
W.Decomp.*RWY 13: 10.0 kt HW -0 kt LCW
W.Rank130° ranks 16
Current wind is above 130° avg. (6.8)
Visibility9999 m
Phenomena:N/A
Clouds:Broken 019 Hf
Broken 025 Hf
Expected CloudBase > 1,600 ft AGL from Temp-Dew spread
Ceiling1,900 ft
Temp15°C
Dew Point11°C (77% RH)
AAT11.7°C
QNH998 hPa
Raw Report
SPECI CYWE 201848Z AUTO 13010G16KT 9SM BKN019 BKN025 15/11 A2948 RMK
SLP995 DENSITY ALT 1900FT=

Extra information for CYWE:More info

Social comments